Flight Track Log - Related Links

Times and Time Zones

All times are in EDT time to prevent confusion due to time zone crossing. See the VNR160 flight status page for this flight to view local times or setup timezone preferences in your user account.

Time Position Orientation Groundspeed Altitude Reporting Facility
EDT Latitude Longitude Course Direction KTS MPH feet Rate Location/Type
Fri 03:11:09 PM 39.8358 -75.2853 185° South 145 167 2,100  Level FAA TRACON SMA TRACON (SMA)
Fri 03:11:29 PM 39.8219 -75.2906 196° South 161 185 2,700 1,950 Climbing FAA TRACON SMA TRACON (SMA)
Fri 03:11:49 PM 39.8086 -75.2961 198° South 163 188 3,400 2,700 Climbing FAA TRACON SMA TRACON (SMA)
Fri 03:12:09 PM 39.7931 -75.3028 198° South 156 180 4,500 2,927 Climbing FAA TRACON SMA TRACON (SMA)
Fri 03:12:30 PM 39.7808 -75.3047 187° South 139 160 5,400 2,100 Climbing FAA TRACON SMA TRACON (SMA)
Fri 03:12:49 PM 39.7683 -75.3064 186° South 152 175 5,900 1,846 Climbing FAA TRACON SMA TRACON (SMA)
Fri 03:13:09 PM 39.7528 -75.3092 188° South 159 183 6,600 1,800 Climbing FAA TRACON SMA TRACON (SMA)
Fri 03:13:29 PM 39.7372 -75.3103 183° South 165 190 7,100 1,350 Climbing FAA TRACON SMA TRACON (SMA)
Fri 03:13:49 PM 39.7214 -75.3117 184° South 184 212 7,500 1,200 Climbing FAA TRACON SMA TRACON (SMA)
Fri 03:14:09 PM 39.7017 -75.3144 186° South 201 231 7,900 900 Climbing FAA TRACON SMA TRACON (SMA)
Fri 03:14:29 PM 39.6825 -75.3144 180° South 211 243 8,100 900 Climbing FAA TRACON SMA TRACON (SMA)
Fri 03:14:49 PM 39.6631 -75.3156 183° South 216 249 8,500 1,200 Climbing FAA TRACON SMA TRACON (SMA)
Fri 03:15:09 PM 39.6394 -75.3175 184° South 217 250 8,900 585 Climbing FAA TRACON SMA TRACON (SMA)
Fri 03:15:30 PM 39.6203 -75.3186 183° South 220 253 8,900  Level FAA TRACON SMA TRACON (SMA)
Fri 03:15:49 PM 39.6011 -75.3200 183° South 224 258 8,900  Level FAA TRACON SMA TRACON (SMA)
Fri 03:16:00 PM 39.4295 -75.3338 185° South  Level FlightAware Approximate
Fri 03:16:09 PM 39.5756 -75.3219 183° South 233 268 8,900  Level FAA TRACON SMA TRACON (SMA)
Fri 03:16:29 PM 39.5564 -75.3231 183° South 236 272 8,900  Level FAA TRACON SMA TRACON (SMA)
Fri 03:16:49 PM 39.5347 -75.3247 183° South 237 273 8,900  Level FAA TRACON SMA TRACON (SMA)
Fri 03:17:09 PM 39.5094 -75.3267 183° South 237 273 8,900  Level FAA TRACON SMA TRACON (SMA)
Fri 03:17:29 PM 39.4892 -75.3286 184° South 237 273 8,900  Level FAA TRACON SMA TRACON (SMA)
Fri 03:17:49 PM 39.4656 -75.3331 188° South 237 273 8,900  Level FAA TRACON SMA TRACON (SMA)
Fri 03:18:09 PM 39.4447 -75.3375 189° South 236 272 8,900  Level FAA TRACON SMA TRACON (SMA)
Fri 03:18:30 PM 39.4236 -75.3414 188° South 238 274 8,900  Level FAA TRACON SMA TRACON (SMA)
Fri 03:18:49 PM 39.4031 -75.3450 188° South 239 275 8,900 615 Level FAA TRACON SMA TRACON (SMA)
Fri 03:19:09 PM 39.3783 -75.3497 188° South 235 270 9,300 1,500 Climbing FAA TRACON SMA TRACON (SMA)
Fri 03:19:29 PM 39.3592 -75.3531 188° South 231 266 9,900 1,800 Climbing FAA TRACON SMA TRACON (SMA)
Fri 03:19:49 PM 39.3403 -75.3561 187° South 226 260 10,500 1,902 Climbing FAA TRACON SMA TRACON (SMA)
Fri 03:20:10 PM 39.3172 -75.3600 187° South 220 253 11,200 1,800 Climbing FAA TRACON SMA TRACON (SMA)
Fri 03:20:29 PM 39.2989 -75.3644 191° South 219 252 11,700 1,692 Climbing FAA TRACON SMA TRACON (SMA)
Fri 03:20:49 PM 39.2803 -75.3678 188° South 218 251 12,300 1,650 Climbing FAA TRACON SMA TRACON (SMA)
Fri 03:21:09 PM 39.2619 -75.3706 187° South 218 251 12,800 1,100 Climbing FAA TRACON SMA TRACON (SMA)
Fri 03:21:49 PM 39.2431 -75.3733 186° South 216 249 13,400 600 Climbing FAA TRACON SMA TRACON (SMA)
Fri 03:22:09 PM 39.2431 -75.3733 210° Southwest 216 249 13,400 2,105 Level FAA TRACON SMA TRACON (SMA)
Fri 03:23:43 PM 39.1133 -75.3964 188° South 209 241 17,400 2,104 Climbing Washington Center
Fri 03:24:43 PM 39.0508 -75.4072 188° South 222 255 18,800 1,600 Climbing Washington Center
Fri 03:25:43 PM 38.9861 -75.4181 187° South 233 268 20,600 2,050 Climbing Washington Center
Fri 03:26:43 PM 38.9278 -75.4236 184° South 233 268 22,900 1,700 Climbing Washington Center
Fri 03:27:43 PM 38.8672 -75.4317 186° South 222 255 24,000 900 Climbing Washington Center
Fri 03:28:43 PM 38.8006 -75.4425 187° South 222 255 24,700 750 Climbing Washington Center
Fri 03:29:43 PM 38.7297 -75.4533 187° South 248 285 25,500 1,150 Climbing Washington Center
Fri 03:30:43 PM 38.6547 -75.4642 186° South 266 306 27,000 1,500 Climbing Washington Center
Fri 03:31:43 PM 38.5858 -75.4747 187° South 266 306 28,500 1,250 Climbing Washington Center
Fri 03:32:43 PM 38.5214 -75.4908 191° South 251 289 29,500 700 Climbing Washington Center
Fri 03:33:43 PM 38.4503 -75.4964 184° South 251 289 29,900 250 Climbing Washington Center
Fri 03:34:43 PM 38.3753 -75.5069 186° South 262 302 30,000 50 Climbing Washington Center
Fri 03:35:43 PM 38.3003 -75.5494 204° Southwest 272 313 30,000  Level Washington Center
Fri 03:36:43 PM 38.2356 -75.6103 216° Southwest 283 326 30,000  Level Washington Center
Fri 03:37:43 PM 38.1647 -75.6764 216° Southwest 306 352 30,000  Level Washington Center
Fri 03:38:43 PM 38.0958 -75.7447 218° Southwest 316 364 30,000  Level Washington Center
Fri 03:39:43 PM 38.0375 -75.8053 219° Southwest 316 364 30,000  Level Washington Center
Fri 03:40:43 PM 37.9622 -75.8683 213° Southwest 311 358 30,000  Level Washington Center
Fri 03:41:43 PM 37.8933 -75.9311 216° Southwest 305 351 30,000  Level Washington Center
Fri 03:42:43 PM 37.8408 -75.9808 217° Southwest 305 351 30,000  Level Washington Center
Fri 03:43:43 PM 37.7719 -76.0517 219° Southwest 300 345 30,000  Level Washington Center
Fri 03:44:43 PM 37.7050 -76.1142 216° Southwest 300 345 30,000  Level Washington Center
Fri 03:45:43 PM 37.6275 -76.1792 214° Southwest 300 345 30,000  Level Washington Center
Fri 03:46:43 PM 37.5625 -76.2389 216° Southwest 300 345 30,000  Level Washington Center
Fri 03:47:43 PM 37.4953 -76.3011 216° Southwest 300 345 30,000 350 Level Washington Center
Fri 03:48:43 PM 37.4303 -76.3608 216° Southwest 300 345 30,700 850 Climbing Washington Center
Fri 03:49:43 PM 37.3694 -76.4150 215° Southwest 289 333 31,700 650 Climbing Washington Center
Fri 03:50:43 PM 37.3106 -76.4692 216° Southwest 278 320 32,000 150 Climbing Washington Center
Fri 03:51:43 PM 37.2436 -76.5283 215° Southwest 278 320 32,000  Level Washington Center
Fri 03:52:43 PM 37.1783 -76.5928 218° Southwest 295 339 32,000  Level Washington Center
Fri 03:53:43 PM 37.1089 -76.6519 214° Southwest 300 345 32,000  Level Washington Center
Fri 03:54:43 PM 37.0417 -76.7133 216° Southwest 300 345 32,000  Level Washington Center
Fri 03:55:43 PM 36.9928 -76.7958 233° Southwest 293 337 32,000  Level Washington Center
Fri 03:56:43 PM 36.9481 -76.8861 238° Southwest 299 344 32,000  Level Washington Center
Fri 03:57:43 PM 36.9033 -76.9711 237° Southwest 299 344 32,000  Level Washington Center
Fri 03:58:43 PM 36.8339 -77.0244 212° Southwest 289 333 32,000  Level Washington Center
Fri 03:59:43 PM 36.7522 -77.0514 195° South 294 338 32,000  Level Washington Center
Fri 04:00:43 PM 36.6664 -77.0833 197° South 307 353 32,000  Level Washington Center
Fri 04:01:43 PM 36.5867 -77.1131 197° South 312 359 32,000  Level Washington Center
Fri 04:02:43 PM 36.5050 -77.1450 197° South 312 359 32,000  Level Washington Center
Fri 04:03:43 PM 36.4314 -77.1719 196° South 307 353 32,000  Level Washington Center
Fri 04:04:43 PM 36.3517 -77.2039 198° South 307 353 32,000  Level Washington Center
Fri 04:05:43 PM 36.2681 -77.2278 193° South 307 353 32,000  Level Washington Center
Fri 04:06:43 PM 36.1883 -77.2622 199° South 307 353 32,000  Level Washington Center
Fri 04:07:43 PM 36.1128 -77.2889 196° South 301 346 32,000  Level Washington Center
Fri 04:08:43 PM 36.0308 -77.3181 196° South 301 346 32,000  Level Washington Center
Fri 04:09:44 PM 35.9511 -77.3497 198° South 306 352 32,000  Level Washington Center
Fri 04:10:43 PM 35.8714 -77.3786 196° South 306 352 32,000  Level Washington Center
Fri 04:11:43 PM 35.7856 -77.4047 194° South 306 352 32,000  Level Washington Center
Fri 04:12:43 PM 35.7058 -77.4364 198° South 306 352 32,000  Level Washington Center
Fri 04:13:43 PM 35.6197 -77.4675 196° South 306 352 32,000  Level Washington Center
Fri 04:14:43 PM 35.5358 -77.4986 197° South 312 359 32,000  Level Washington Center
Fri 04:15:43 PM 35.4519 -77.5272 196° South 312 359 32,000  Level Washington Center
Fri 04:16:43 PM 35.3700 -77.5636 200° South 317 365 32,000  Level Washington Center
Fri 04:17:43 PM 35.3042 -77.6331 221° Southwest 317 365 32,000  Level Washington Center
Fri 04:18:43 PM 35.2383 -77.7003 220° Southwest 312 359 32,000  Level Washington Center
Fri 04:19:43 PM 35.1722 -77.7669 220° Southwest 312 359 32,000  Level Washington Center
Fri 04:20:43 PM 35.1064 -77.8339 220° Southwest 312 359 32,000  Level Washington Center
Fri 04:21:43 PM 35.0383 -77.9006 219° Southwest 312 359 32,000  Level Washington Center
Fri 04:22:43 PM 34.9744 -77.9697 222° Southwest 312 359 32,000  Level Washington Center
Fri 04:23:43 PM 34.9106 -78.0361 220° Southwest 312 359 32,000  Level Washington Center
Fri 04:24:43 PM 34.8444 -78.1050 221° Southwest 318 366 32,000  Level Washington Center
Fri 04:28:44 PM 34.5858 -78.3761 221° Southwest 308 354 32,000  Level Jacksonville Center
Fri 04:29:44 PM 34.5214 -78.4372 218° Southwest 308 354 32,000  Level Jacksonville Center
Fri 04:30:44 PM 34.4547 -78.5036 219° Southwest 308 354 32,000  Level Jacksonville Center
Fri 04:31:44 PM 34.3903 -78.5697 220° Southwest 308 354 32,000 -550 Level Jacksonville Center
Fri 04:32:44 PM 34.3217 -78.6386 220° Southwest 318 366 30,900 -1,350 Descending Jacksonville Center
Fri 04:33:44 PM 34.2411 -78.7206 220° Southwest 339 390 29,300 -1,350 Descending Jacksonville Center
Fri 04:34:44 PM 34.1664 -78.7944 219° Southwest 351 404 28,200 -650 Descending Jacksonville Center
Fri 04:35:44 PM 34.0936 -78.8681 220° Southwest 351 404 28,000 -100 Descending Jacksonville Center
Fri 04:36:44 PM 34.0225 -78.9339 218° Southwest 345 397 28,000  Level Jacksonville Center
Fri 04:37:44 PM 33.9581 -79.0019 221° Southwest 333 383 28,000  Level Jacksonville Center
Fri 04:38:44 PM 33.8911 -79.0675 219° Southwest 321 369 28,000  Level Jacksonville Center
Fri 04:39:44 PM 33.8219 -79.1303 217° Southwest 316 364 28,000  Level Jacksonville Center
Fri 04:40:44 PM 33.7592 -79.1956 221° Southwest 316 364 28,000  Level Jacksonville Center
Fri 04:41:44 PM 33.6983 -79.2531 218° Southwest 316 364 28,000  Level Jacksonville Center
Fri 04:42:44 PM 33.6356 -79.3178 221° Southwest 305 351 28,000  Level Jacksonville Center
Fri 04:43:44 PM 33.5683 -79.3803 218° Southwest 305 351 28,000  Level Jacksonville Center
Fri 04:44:44 PM 33.5056 -79.4453 221° Southwest 305 351 28,000  Level Jacksonville Center
Fri 04:45:44 PM 33.4406 -79.5075 219° Southwest 300 345 28,000  Level Jacksonville Center
Fri 04:46:44 PM 33.3753 -79.5697 219° Southwest 300 345 28,000  Level Jacksonville Center
Fri 04:47:44 PM 33.3122 -79.6317 219° Southwest 300 345 28,000  Level Jacksonville Center
Fri 04:48:44 PM 33.2472 -79.6961 220° Southwest 300 345 28,000  Level Jacksonville Center
Fri 04:49:44 PM 33.1819 -79.7581 218° Southwest 300 345 28,000  Level Jacksonville Center
Fri 04:50:44 PM 33.1186 -79.8197 219° Southwest 300 345 28,000  Level Jacksonville Center
Fri 04:51:44 PM 33.0533 -79.8814 218° Southwest 294 338 28,000  Level Jacksonville Center
Fri 04:52:44 PM 32.9881 -79.9456 220° Southwest 294 338 28,000  Level Jacksonville Center
Fri 04:53:44 PM 32.9247 -80.0069 219° Southwest 294 338 28,000  Level Jacksonville Center
Fri 04:54:44 PM 32.8550 -80.0636 214° Southwest 294 338 28,000  Level Jacksonville Center
Fri 04:55:44 PM 32.7853 -80.1153 212° Southwest 294 338 28,000  Level Jacksonville Center
Fri 04:56:44 PM 32.7156 -80.1667 212° Southwest 300 345 28,000  Level Jacksonville Center
Fri 04:57:44 PM 32.6456 -80.2206 213° Southwest 300 345 28,000  Level Jacksonville Center
Fri 04:58:44 PM 32.5758 -80.2719 212° Southwest 300 345 28,000  Level Jacksonville Center
Fri 04:59:44 PM 32.5103 -80.3331 218° Southwest 300 345 28,000  Level Jacksonville Center
Fri 05:00:44 PM 32.4447 -80.3939 218° Southwest 300 345 28,000  Level Jacksonville Center
Fri 05:01:44 PM 32.3789 -80.4572 219° Southwest 305 351 28,000  Level Jacksonville Center
Fri 05:02:44 PM 32.3133 -80.5156 217° Southwest 299 344 28,000  Level Jacksonville Center
Fri 05:03:44 PM 32.2497 -80.5786 220° Southwest 299 344 28,000 200 Level Jacksonville Center
Fri 05:04:44 PM 32.1842 -80.6392 218° Southwest 292 336 28,400 600 Climbing Jacksonville Center
Fri 05:05:44 PM 32.1267 -80.6969 220° Southwest 292 336 29,200 700 Climbing Jacksonville Center
Fri 05:06:44 PM 32.0650 -80.7525 217° Southwest 282 325 29,800 400 Climbing Jacksonville Center
Fri 05:07:44 PM 32.0094 -80.8028 218° Southwest 282 325 30,000 100 Climbing Jacksonville Center
Fri 05:08:44 PM 31.9394 -80.8703 219° Southwest 298 343 30,000 200 Level Jacksonville Center
Fri 05:09:44 PM 31.8736 -80.9306 218° Southwest 298 343 30,400 600 Climbing Jacksonville Center
Fri 05:10:44 PM 31.8161 -80.9856 219° Southwest 298 343 31,200 850 Climbing Jacksonville Center
Fri 05:11:44 PM 31.7503 -81.0481 219° Southwest 292 336 32,100 800 Climbing Jacksonville Center
Fri 05:12:44 PM 31.6883 -81.1031 217° Southwest 292 336 32,800 600 Climbing Jacksonville Center
Fri 05:13:44 PM 31.6369 -81.1528 219° Southwest 287 330 33,300 500 Climbing Jacksonville Center
Fri 05:14:44 PM 31.5708 -81.2150 219° Southwest 287 330 33,800 400 Climbing Jacksonville Center
Fri 05:15:44 PM 31.5131 -81.2647 216° Southwest 282 325 34,100 450 Climbing Jacksonville Center
Fri 05:16:44 PM 31.4450 -81.3267 218° Southwest 287 330 34,700 450 Climbing Jacksonville Center
Fri 05:17:44 PM 31.3831 -81.3839 218° Southwest 287 330 35,000 150 Climbing Jacksonville Center
Fri 05:18:44 PM 31.3211 -81.4481 222° Southwest 300 345 35,000 150 Level Jacksonville Center
Fri 05:19:44 PM 31.2550 -81.5072 217° Southwest 300 345 35,300 400 Climbing Jacksonville Center
Fri 05:20:44 PM 31.1908 -81.5617 216° Southwest 294 338 35,800 350 Climbing Jacksonville Center
Fri 05:21:44 PM 31.1289 -81.6233 220° Southwest 294 338 36,000 100 Climbing Jacksonville Center
Fri 05:22:44 PM 31.0647 -81.6800 217° Southwest 294 338 36,000  Level Jacksonville Center
Fri 05:23:44 PM 30.9983 -81.7414 218° Southwest 299 344 36,000 -50 Level Jacksonville Center
Fri 05:24:44 PM 30.9319 -81.8003 217° Southwest 299 344 35,900  Descending Jacksonville Center
Fri 05:25:44 PM 30.8658 -81.8617 219° Southwest 299 344 36,000 50 Climbing Jacksonville Center
Fri 05:26:44 PM 30.8014 -81.9178 217° Southwest 299 344 36,000  Level Jacksonville Center
Fri 05:27:44 PM 30.7414 -81.9742 219° Southwest 299 344 36,000  Level Jacksonville Center
Fri 05:28:44 PM 30.6750 -82.0328 217° Southwest 299 344 36,000  Level Jacksonville Center
Fri 05:29:44 PM 30.6064 -82.0889 215° Southwest 299 344 36,000  Level Jacksonville Center
Fri 05:30:44 PM 30.5125 -82.1042 188° South 309 356 36,000 -50 Level Jacksonville Center
Fri 05:31:44 PM 30.4144 -82.0881 172° South 344 396 35,900  Descending Jacksonville Center
Fri 05:32:44 PM 30.3225 -82.0911 182° South 339 390 36,000 50 Climbing Jacksonville Center
Fri 05:33:44 PM 30.2306 -82.0825 175° South 344 396 36,000 -100 Level Jacksonville Center
Fri 05:34:44 PM 30.1367 -82.0831 180° South 343 395 35,800 -500 Descending Jacksonville Center
Fri 05:35:44 PM 30.0531 -82.0911 185° South 338 389 35,000 -400 Descending Jacksonville Center
Fri 05:36:44 PM 29.9592 -82.1061 188° South 338 389 35,000  Level Jacksonville Center
Fri 05:37:44 PM 29.8675 -82.1142 184° South 338 389 35,000  Level Jacksonville Center
Fri 05:38:44 PM 29.7797 -82.1244 186° South 326 375 35,000  Level Jacksonville Center
Fri 05:39:44 PM 29.6900 -82.1300 183° South 326 375 35,000  Level Jacksonville Center
Fri 05:40:44 PM 29.6044 -82.1400 186° South 321 369 35,000  Level Jacksonville Center
Fri 05:41:44 PM 29.5147 -82.1503 186° South 321 369 35,000  Level Jacksonville Center
Fri 05:42:44 PM 29.4294 -82.1581 185° South 321 369 35,000  Level Jacksonville Center
Fri 05:43:44 PM 29.3397 -82.1661 184° South 321 369 35,000  Level Jacksonville Center
Fri 05:44:44 PM 29.2542 -82.1761 186° South 326 375 35,000  Level Jacksonville Center
Fri 05:45:44 PM 29.1644 -82.1864 186° South 326 375 35,000  Level Jacksonville Center
Fri 05:46:44 PM 29.0747 -82.1942 184° South 326 375 35,000  Level Jacksonville Center
Fri 05:47:44 PM 28.9850 -82.2042 186° South 326 375 35,000  Level Jacksonville Center
Fri 05:48:44 PM 28.8994 -82.2167 187° South 326 375 35,000  Level Jacksonville Center
Fri 05:49:44 PM 28.8097 -82.2267 186° South 326 375 35,000  Level Jacksonville Center
Fri 05:50:44 PM 28.7222 -82.2367 186° South 326 375 35,000  Level Jacksonville Center
Fri 05:51:44 PM 28.6303 -82.2444 184° South 332 382 35,000  Level Jacksonville Center
Fri 05:52:44 PM 28.5406 -82.2544 186° South 332 382 35,000  Level Jacksonville Center
Fri 05:53:44 PM 28.4489 -82.2622 184° South 332 382 35,000  Level Jacksonville Center
Fri 05:54:44 PM 28.3592 -82.2744 187° South 332 382 35,000  Level Jacksonville Center
Fri 05:56:16 PM 28.2147 -82.2892 185° South 327 376 35,000  Level Miami Center
Fri 05:57:16 PM 28.1267 -82.2967 184° South 332 382 35,000  Level Miami Center
Fri 05:58:16 PM 28.0347 -82.3042 184° South 332 382 35,000  Level Miami Center
Fri 05:59:16 PM 27.9375 -82.2783 167° South 338 389 35,000  Level Miami Center
Fri 06:00:16 PM 27.8408 -82.2431 162° South 354 407 35,000  Level Miami Center
Fri 06:01:16 PM 27.7461 -82.2106 163° South 359 413 35,000  Level Miami Center
Fri 06:02:16 PM 27.6392 -82.1703 162° South 359 413 35,000 -800 Level Miami Center
Fri 06:03:16 PM 27.5381 -82.1375 164° South 365 420 33,400 -1,850 Descending Miami Center
Fri 06:04:16 PM 27.4289 -82.0997 163° South 392 451 31,300 -2,150 Descending Miami Center
Fri 06:05:16 PM 27.3278 -82.0672 164° South 419 482 29,100 -2,150 Descending Miami Center
Fri 06:06:16 PM 27.2186 -82.0272 162° South 419 482 27,000 -2,250 Descending Miami Center
Fri 06:07:16 PM 27.1031 -81.9894 164° South 404 465 24,600 -2,000 Descending Miami Center
Fri 06:08:16 PM 27.0247 -81.9650 164° South 379 436 23,000 -1,600 Descending Miami Center
Fri 06:09:16 PM 26.9236 -81.9303 163° South 365 420 21,400 -1,550 Descending Miami Center
Fri 06:10:16 PM 26.8506 -81.8644 141° Southeast 336 387 19,900 -1,200 Descending Miami Center
Fri 06:11:16 PM 26.7803 -81.7892 136° Southeast 344 396 19,000 -450 Descending Miami Center
Fri 06:12:16 PM 26.7117 -81.7167 137° Southeast 344 396 19,000  Level Miami Center
Fri 06:13:16 PM 26.6919 -81.6183 103° East 293 337 19,000  Level Miami Center
Fri 06:14:16 PM 26.7133 -81.5353 74° East 281 323 19,000  Level Miami Center
Fri 06:15:16 PM 26.7350 -81.4433 75° East 290 334 19,000 -1,100 Level Miami Center
Fri 06:16:16 PM 26.7592 -81.3419 75° East 301 346 16,800 -1,950 Descending Miami Center
Fri 06:17:16 PM 26.7808 -81.2519 75° East 295 339 15,100 -2,050 Descending Miami Center
Fri 06:18:16 PM 26.7725 -81.1750 97° East 265 305 12,700 -2,150 Descending Miami Center
Fri 06:19:16 PM 26.7472 -81.1111 114° Southeast 244 281 10,800 -2,150 Descending Miami Center
Fri 06:20:16 PM 26.7242 -81.0431 111° Southeast 239 275 8,400 -1,900 Descending Miami Center
Fri 06:21:16 PM 26.6992 -80.9700 111° Southeast 231 266 7,000 -700 Descending Miami Center
Fri 06:22:16 PM 26.6719 -80.9017 114° Southeast 231 266 7,000  Level Miami Center
Fri 06:23:16 PM 26.6506 -80.8406 111° Southeast 236 272 7,000  Level Miami Center
Fri 06:24:16 PM 26.6272 -80.7722 111° Southeast 236 272 7,000  Level Miami Center
Fri 06:25:16 PM 26.5919 -80.6922 116° Southeast 246 283 7,000 -300 Level Miami Center
Fri 06:26:16 PM 26.5667 -80.6217 112° Southeast 265 305 6,400 -1,350 Descending Miami Center
Fri 06:27:16 PM 26.5353 -80.5372 113° Southeast 271 312 4,300 -1,700 Descending Miami Center
Fri 06:28:16 PM 26.5139 -80.4761 111° Southeast 251 289 3,000 -1,150 Descending Miami Center
Fri 06:29:16 PM 26.4844 -80.3986 113° Southeast 238 274 2,000 -750 Descending Miami Center
Fri 06:30:16 PM 26.4631 -80.3378 111° Southeast 232 267 1,500 -250 Descending Miami Center
Fri 06:31:16 PM 26.4392 -80.2789 114° Southeast 212 244 1,500  Level Miami Center
Fri 06:33:00 PM 26.3889 -80.1329 111° Southeast  Level FlightAware Approximate
Fri 06:40:00 PM 26.3785 -80.1077 138° Southeast  Level Estimated
Fri 06:41:00 PM 26.3785 -80.1077 138° Southeast  Level Estimated
Fri 06:42:00 PM 26.3785 -80.1077 138° Southeast  Level Estimated
Fri 06:43:00 PM 26.3785 -80.1077 138° Southeast  Level Estimated
Fri 06:44:00 PM 26.3785 -80.1077 138° Southeast  Level Estimated

Login

Don't have an account? Register now (free) for customized features, flight alerts, and more!